sensor_id;sensor_type;location;lat;lon;timestamp;pressure;altitude;pressure_sealevel;temperature;humidity
64362;BME280;50685;53.346;-6.296;2023-01-28T00:01:55;103180.47;;;3.90;74.48
64362;BME280;50685;53.346;-6.296;2023-01-28T00:04:20;103179.94;;;3.97;74.46
64362;BME280;50685;53.346;-6.296;2023-01-28T00:06:46;103182.00;;;4.02;73.86
64362;BME280;50685;53.346;-6.296;2023-01-28T00:09:11;103177.06;;;4.09;74.06
64362;BME280;50685;53.346;-6.296;2023-01-28T00:11:37;103178.22;;;4.14;73.96
64362;BME280;50685;53.346;-6.296;2023-01-28T00:14:02;103182.09;;;4.21;73.81
64362;BME280;50685;53.346;-6.296;2023-01-28T00:16:29;103177.97;;;4.26;73.76
64362;BME280;50685;53.346;-6.296;2023-01-28T00:18:54;103164.16;;;4.30;73.59
64362;BME280;50685;53.346;-6.296;2023-01-28T00:21:19;103166.88;;;4.31;73.08
64362;BME280;50685;53.346;-6.296;2023-01-28T00:23:52;103159.81;;;4.30;73.47
64362;BME280;50685;53.346;-6.296;2023-01-28T00:26:18;103156.38;;;4.31;73.47
64362;BME280;50685;53.346;-6.296;2023-01-28T00:28:43;103145.75;;;4.30;73.52
64362;BME280;50685;53.346;-6.296;2023-01-28T00:31:11;103158.69;;;4.25;73.52
64362;BME280;50685;53.346;-6.296;2023-01-28T00:33:36;103149.56;;;4.18;73.86
64362;BME280;50685;53.346;-6.296;2023-01-28T00:36:02;103145.94;;;4.16;73.96
64362;BME280;50685;53.346;-6.296;2023-01-28T00:38:28;103154.75;;;4.17;73.95
64362;BME280;50685;53.346;-6.296;2023-01-28T00:40:53;103161.72;;;4.16;73.97
64362;BME280;50685;53.346;-6.296;2023-01-28T00:43:19;103177.47;;;4.16;74.00
64362;BME280;50685;53.346;-6.296;2023-01-28T00:45:44;103177.47;;;4.16;74.12
64362;BME280;50685;53.346;-6.296;2023-01-28T00:48:10;103179.22;;;4.16;74.13
64362;BME280;50685;53.346;-6.296;2023-01-28T00:50:35;103172.31;;;4.18;73.99
64362;BME280;50685;53.346;-6.296;2023-01-28T00:53:01;103172.41;;;4.20;74.70
64362;BME280;50685;53.346;-6.296;2023-01-28T00:55:26;103157.63;;;4.22;74.23
64362;BME280;50685;53.346;-6.296;2023-01-28T00:57:52;103155.06;;;4.23;74.44
64362;BME280;50685;53.346;-6.296;2023-01-28T01:00:17;103148.06;;;4.24;74.36
64362;BME280;50685;53.346;-6.296;2023-01-28T01:02:45;103140.94;;;4.21;74.44
64362;BME280;50685;53.346;-6.296;2023-01-28T01:05:11;103139.00;;;4.17;74.80
64362;BME280;50685;53.346;-6.296;2023-01-28T01:07:36;103148.59;;;4.16;75.19
64362;BME280;50685;53.346;-6.296;2023-01-28T01:10:12;103140.69;;;4.16;74.66
64362;BME280;50685;53.346;-6.296;2023-01-28T01:12:37;103120.19;;;4.09;75.58
64362;BME280;50685;53.346;-6.296;2023-01-28T01:15:03;103126.63;;;4.14;75.72
64362;BME280;50685;53.346;-6.296;2023-01-28T01:17:32;103123.25;;;4.17;75.53
64362;BME280;50685;53.346;-6.296;2023-01-28T01:19:58;103123.31;;;4.18;76.04
64362;BME280;50685;53.346;-6.296;2023-01-28T01:22:23;103119.69;;;4.16;75.83
64362;BME280;50685;53.346;-6.296;2023-01-28T01:24:48;103122.31;;;4.16;76.00
64362;BME280;50685;53.346;-6.296;2023-01-28T01:27:14;103118.81;;;4.16;76.58
64362;BME280;50685;53.346;-6.296;2023-01-28T01:29:39;103120.00;;;4.23;76.57
64362;BME280;50685;53.346;-6.296;2023-01-28T01:32:04;103120.25;;;4.27;76.28
64362;BME280;50685;53.346;-6.296;2023-01-28T01:34:30;103104.72;;;4.32;76.26
64362;BME280;50685;53.346;-6.296;2023-01-28T01:36:55;103105.78;;;4.36;76.64
64362;BME280;50685;53.346;-6.296;2023-01-28T01:39:20;103105.91;;;4.39;76.43
64362;BME280;50685;53.346;-6.296;2023-01-28T01:41:45;103104.97;;;4.37;76.39
64362;BME280;50685;53.346;-6.296;2023-01-28T01:46:55;103104.72;;;4.32;77.13
64362;BME280;50685;53.346;-6.296;2023-01-28T01:49:26;103107.34;;;4.32;77.28
64362;BME280;50685;53.346;-6.296;2023-01-28T01:51:57;103110.06;;;4.33;77.66
64362;BME280;50685;53.346;-6.296;2023-01-28T01:54:25;103118.91;;;4.36;77.93
64362;BME280;50685;53.346;-6.296;2023-01-28T01:56:52;103109.16;;;4.33;78.08
64362;BME280;50685;53.346;-6.296;2023-01-28T01:59:20;103110.97;;;4.34;78.29
64362;BME280;50685;53.346;-6.296;2023-01-28T02:01:46;103111.78;;;4.33;78.29
64362;BME280;50685;53.346;-6.296;2023-01-28T02:04:17;103114.34;;;4.31;79.17
64362;BME280;50685;53.346;-6.296;2023-01-28T02:06:44;103112.59;;;4.32;78.92
64362;BME280;50685;53.346;-6.296;2023-01-28T02:09:23;103123.19;;;4.33;79.39
64362;BME280;50685;53.346;-6.296;2023-01-28T02:11:49;103129.44;;;4.36;79.29
64362;BME280;50685;53.346;-6.296;2023-01-28T02:14:16;103137.44;;;4.39;79.83
64362;BME280;50685;53.346;-6.296;2023-01-28T02:16:41;103143.63;;;4.39;80.01
64362;BME280;50685;53.346;-6.296;2023-01-28T02:19:07;103139.34;;;4.41;79.63
64362;BME280;50685;53.346;-6.296;2023-01-28T02:24:20;103140.31;;;4.43;81.49
64362;BME280;50685;53.346;-6.296;2023-01-28T02:34:44;103155.50;;;4.49;85.00
64362;BME280;50685;53.346;-6.296;2023-01-28T02:37:14;103162.63;;;4.52;85.36
64362;BME280;50685;53.346;-6.296;2023-01-28T02:39:47;103165.34;;;4.53;85.29
64362;BME280;50685;53.346;-6.296;2023-01-28T02:42:15;103165.09;;;4.48;87.25
64362;BME280;50685;53.346;-6.296;2023-01-28T02:44:42;103164.78;;;4.42;89.37
64362;BME280;50685;53.346;-6.296;2023-01-28T02:47:10;103162.00;;;4.39;90.39
64362;BME280;50685;53.346;-6.296;2023-01-28T02:49:55;103159.06;;;4.33;91.04
64362;BME280;50685;53.346;-6.296;2023-01-28T02:55:20;103136.69;;;4.23;92.16
64362;BME280;50685;53.346;-6.296;2023-01-28T03:03:17;103128.06;;;4.26;91.86
64362;BME280;50685;53.346;-6.296;2023-01-28T03:05:45;103117.47;;;4.24;93.55
64362;BME280;50685;53.346;-6.296;2023-01-28T03:08:28;103120.00;;;4.23;93.00
64362;BME280;50685;53.346;-6.296;2023-01-28T03:11:12;103122.72;;;4.24;92.75
64362;BME280;50685;53.346;-6.296;2023-01-28T03:13:56;103119.19;;;4.24;92.92
64362;BME280;50685;53.346;-6.296;2023-01-28T03:16:40;103106.06;;;4.24;93.03
64362;BME280;50685;53.346;-6.296;2023-01-28T03:19:25;103089.34;;;4.22;92.16
64362;BME280;50685;53.346;-6.296;2023-01-28T03:22:09;103091.03;;;4.21;91.70
64362;BME280;50685;53.346;-6.296;2023-01-28T03:24:52;103083.84;;;4.17;91.98
64362;BME280;50685;53.346;-6.296;2023-01-28T03:27:39;103082.03;;;4.16;91.78
64362;BME280;50685;53.346;-6.296;2023-01-28T03:30:36;103085.72;;;4.20;91.80
64362;BME280;50685;53.346;-6.296;2023-01-28T03:33:22;103094.66;;;4.23;91.93
64362;BME280;50685;53.346;-6.296;2023-01-28T03:36:06;103105.41;;;4.28;91.31
64362;BME280;50685;53.346;-6.296;2023-01-28T03:38:50;103112.59;;;4.32;92.04
64362;BME280;50685;53.346;-6.296;2023-01-28T03:41:20;103127.69;;;4.36;91.47
64362;BME280;50685;53.346;-6.296;2023-01-28T03:43:45;103128.00;;;4.42;91.38
64362;BME280;50685;53.346;-6.296;2023-01-28T03:46:11;103119.47;;;4.46;91.39
64362;BME280;50685;53.346;-6.296;2023-01-28T03:48:36;103112.53;;;4.48;91.34
64362;BME280;50685;53.346;-6.296;2023-01-28T03:51:01;103102.78;;;4.46;91.51
64362;BME280;50685;53.346;-6.296;2023-01-28T03:53:26;103096.63;;;4.45;91.86
64362;BME280;50685;53.346;-6.296;2023-01-28T03:55:52;103093.19;;;4.46;91.58
64362;BME280;50685;53.346;-6.296;2023-01-28T03:58:18;103097.69;;;4.49;91.91
64362;BME280;50685;53.346;-6.296;2023-01-28T04:00:44;103100.16;;;4.46;91.60
64362;BME280;50685;53.346;-6.296;2023-01-28T04:03:13;103112.03;;;4.56;91.32
64362;BME280;50685;53.346;-6.296;2023-01-28T04:05:44;103110.44;;;4.59;91.46
64362;BME280;50685;53.346;-6.296;2023-01-28T04:08:10;103115.88;;;4.62;91.29
64362;BME280;50685;53.346;-6.296;2023-01-28T04:10:39;103120.38;;;4.65;91.70
64362;BME280;50685;53.346;-6.296;2023-01-28T04:13:05;103118.63;;;4.65;91.42
64362;BME280;50685;53.346;-6.296;2023-01-28T04:15:30;103119.56;;;4.66;90.71
64362;BME280;50685;53.346;-6.296;2023-01-28T04:17:55;103113.47;;;4.67;91.46
64362;BME280;50685;53.346;-6.296;2023-01-28T04:20:21;103107.31;;;4.66;91.21
64362;BME280;50685;53.346;-6.296;2023-01-28T04:22:46;103109.09;;;4.68;91.66
64362;BME280;50685;53.346;-6.296;2023-01-28T04:25:11;103101.28;;;4.69;91.94
64362;BME280;50685;53.346;-6.296;2023-01-28T04:27:37;103106.72;;;4.72;91.84
64362;BME280;50685;53.346;-6.296;2023-01-28T04:30:02;103097.16;;;4.74;91.92
64362;BME280;50685;53.346;-6.296;2023-01-28T04:32:27;103091.06;;;4.75;91.56
64362;BME280;50685;53.346;-6.296;2023-01-28T04:34:53;103088.44;;;4.75;91.65
64362;BME280;50685;53.346;-6.296;2023-01-28T04:37:18;103089.25;;;4.74;92.23
64362;BME280;50685;53.346;-6.296;2023-01-28T04:39:43;103090.94;;;4.72;92.27
64362;BME280;50685;53.346;-6.296;2023-01-28T04:42:08;103086.34;;;4.68;92.27
64362;BME280;50685;53.346;-6.296;2023-01-28T04:44:34;103090.53;;;4.64;92.63
64362;BME280;50685;53.346;-6.296;2023-01-28T04:46:59;103097.47;;;4.62;92.95
64362;BME280;50685;53.346;-6.296;2023-01-28T04:49:24;103092.06;;;4.59;94.05
64362;BME280;50685;53.346;-6.296;2023-01-28T04:51:50;103099.81;;;4.56;93.87
64362;BME280;50685;53.346;-6.296;2023-01-28T04:54:15;103110.31;;;4.56;94.08
64362;BME280;50685;53.346;-6.296;2023-01-28T04:56:40;103112.84;;;4.55;94.53
64362;BME280;50685;53.346;-6.296;2023-01-28T04:59:05;103120.72;;;4.55;94.22
64362;BME280;50685;53.346;-6.296;2023-01-28T05:01:32;103101.06;;;4.46;94.24
64362;BME280;50685;53.346;-6.296;2023-01-28T05:03:57;103121.59;;;4.54;94.69
64362;BME280;50685;53.346;-6.296;2023-01-28T05:06:23;103118.03;;;4.53;94.27
64362;BME280;50685;53.346;-6.296;2023-01-28T05:08:49;103112.53;;;4.48;94.60
64362;BME280;50685;53.346;-6.296;2023-01-28T05:11:14;103121.28;;;4.47;94.85
64362;BME280;50685;53.346;-6.296;2023-01-28T05:13:39;103132.50;;;4.45;95.31
64362;BME280;50685;53.346;-6.296;2023-01-28T05:16:04;103126.28;;;4.43;95.11
64362;BME280;50685;53.346;-6.296;2023-01-28T05:18:30;103128.09;;;4.44;95.55
64362;BME280;50685;53.346;-6.296;2023-01-28T05:20:56;103121.91;;;4.43;95.49
64362;BME280;50685;53.346;-6.296;2023-01-28T05:23:21;103127.25;;;4.45;95.42
64362;BME280;50685;53.346;-6.296;2023-01-28T05:25:46;103136.19;;;4.48;95.54
64362;BME280;50685;53.346;-6.296;2023-01-28T05:28:12;103131.03;;;4.50;95.40
64362;BME280;50685;53.346;-6.296;2023-01-28T05:30:37;103138.97;;;4.52;95.77
64362;BME280;50685;53.346;-6.296;2023-01-28T05:33:03;103141.63;;;4.52;95.29
64362;BME280;50685;53.346;-6.296;2023-01-28T05:35:28;103146.06;;;4.53;95.48
64362;BME280;50685;53.346;-6.296;2023-01-28T05:37:53;103146.19;;;4.56;95.77
64362;BME280;50685;53.346;-6.296;2023-01-28T05:40:22;103141.09;;;4.59;95.43
64362;BME280;50685;53.346;-6.296;2023-01-28T05:42:47;103140.41;;;4.63;95.80
64362;BME280;50685;53.346;-6.296;2023-01-28T05:45:12;103152.06;;;4.68;95.24
64362;BME280;50685;53.346;-6.296;2023-01-28T05:47:38;103139.97;;;4.72;95.65
64362;BME280;50685;53.346;-6.296;2023-01-28T05:50:03;103139.22;;;4.74;95.55
64362;BME280;50685;53.346;-6.296;2023-01-28T05:52:29;103139.38;;;4.77;95.25
64362;BME280;50685;53.346;-6.296;2023-01-28T05:54:54;103131.50;;;4.77;95.18
64362;BME280;50685;53.346;-6.296;2023-01-28T05:57:19;103127.97;;;4.77;95.08
64362;BME280;50685;53.346;-6.296;2023-01-28T05:59:45;103120.09;;;4.77;95.18
64362;BME280;50685;53.346;-6.296;2023-01-28T06:02:10;103119.16;;;4.76;95.25
64362;BME280;50685;53.346;-6.296;2023-01-28T06:04:35;103118.28;;;4.76;95.01
64362;BME280;50685;53.346;-6.296;2023-01-28T06:07:00;103109.41;;;4.74;95.11
64362;BME280;50685;53.346;-6.296;2023-01-28T06:09:26;103117.22;;;4.72;95.58
64362;BME280;50685;53.346;-6.296;2023-01-28T06:11:51;103115.25;;;4.68;95.79
64362;BME280;50685;53.346;-6.296;2023-01-28T06:14:17;103128.41;;;4.68;96.38
64362;BME280;50685;53.346;-6.296;2023-01-28T06:16:42;103128.41;;;4.68;96.54
64362;BME280;50685;53.346;-6.296;2023-01-28T06:19:07;103125.00;;;4.71;97.03
64362;BME280;50685;53.346;-6.296;2023-01-28T06:21:33;103122.38;;;4.71;97.42
64362;BME280;50685;53.346;-6.296;2023-01-28T06:23:58;103114.59;;;4.72;97.61
64362;BME280;50685;53.346;-6.296;2023-01-28T06:26:23;103109.41;;;4.74;98.06
64362;BME280;50685;53.346;-6.296;2023-01-28T06:28:49;103103.47;;;4.78;98.45
64362;BME280;50685;53.346;-6.296;2023-01-28T06:31:14;103107.06;;;4.80;98.44
64362;BME280;50685;53.346;-6.296;2023-01-28T06:33:39;103112.28;;;4.78;98.63
64362;BME280;50685;53.346;-6.296;2023-01-28T06:36:05;103113.97;;;4.78;98.94
64362;BME280;50685;53.346;-6.296;2023-01-28T06:38:31;103115.66;;;4.76;98.89
64362;BME280;50685;53.346;-6.296;2023-01-28T06:40:56;103105.03;;;4.74;98.73
64362;BME280;50685;53.346;-6.296;2023-01-28T06:43:22;103115.50;;;4.73;99.24
64362;BME280;50685;53.346;-6.296;2023-01-28T06:45:57;103110.16;;;4.71;99.56
64362;BME280;50685;53.346;-6.296;2023-01-28T06:48:23;103115.34;;;4.70;99.77
64362;BME280;50685;53.346;-6.296;2023-01-28T06:50:49;103118.75;;;4.67;99.30
64362;BME280;50685;53.346;-6.296;2023-01-28T06:53:15;103116.00;;;4.65;99.65
64362;BME280;50685;53.346;-6.296;2023-01-28T06:55:40;103115.06;;;4.63;100.00
64362;BME280;50685;53.346;-6.296;2023-01-28T06:58:06;103120.22;;;4.62;100.00
64362;BME280;50685;53.346;-6.296;2023-01-28T07:00:31;103123.75;;;4.62;100.00
64362;BME280;50685;53.346;-6.296;2023-01-28T07:02:56;103108.06;;;4.64;100.00
64362;BME280;50685;53.346;-6.296;2023-01-28T07:05:22;103107.25;;;4.65;99.67
64362;BME280;50685;53.346;-6.296;2023-01-28T07:07:47;103099.34;;;4.65;99.44
64362;BME280;50685;53.346;-6.296;2023-01-28T07:10:13;103111.50;;;4.63;99.37
64362;BME280;50685;53.346;-6.296;2023-01-28T07:12:38;103108.06;;;4.64;99.57
64362;BME280;50685;53.346;-6.296;2023-01-28T07:15:04;103102.78;;;4.64;99.46
64362;BME280;50685;53.346;-6.296;2023-01-28T07:17:29;103108.94;;;4.64;99.58
64362;BME280;50685;53.346;-6.296;2023-01-28T07:19:54;103109.03;;;4.66;99.19
64362;BME280;50685;53.346;-6.296;2023-01-28T07:22:20;103108.94;;;4.64;99.29
64362;BME280;50685;53.346;-6.296;2023-01-28T07:24:45;103101.00;;;4.63;98.92
64362;BME280;50685;53.346;-6.296;2023-01-28T07:27:10;103099.19;;;4.62;98.91
64362;BME280;50685;53.346;-6.296;2023-01-28T07:29:36;103106.19;;;4.61;99.07
64362;BME280;50685;53.346;-6.296;2023-01-28T07:32:01;103111.44;;;4.61;98.88
64362;BME280;50685;53.346;-6.296;2023-01-28T07:34:26;103112.44;;;4.63;99.12
64362;BME280;50685;53.346;-6.296;2023-01-28T07:36:52;103110.84;;;4.67;99.06
64362;BME280;50685;53.346;-6.296;2023-01-28T07:39:17;103119.03;;;4.73;98.99
64362;BME280;50685;53.346;-6.296;2023-01-28T07:41:42;103095.56;;;4.78;98.78
64362;BME280;50685;53.346;-6.296;2023-01-28T07:44:08;103098.50;;;4.84;98.42
64362;BME280;50685;53.346;-6.296;2023-01-28T07:46:33;103099.66;;;4.89;98.29
64362;BME280;50685;53.346;-6.296;2023-01-28T07:48:59;103100.69;;;4.93;98.35
64362;BME280;50685;53.346;-6.296;2023-01-28T07:51:24;103093.53;;;4.90;98.42
64362;BME280;50685;53.346;-6.296;2023-01-28T07:53:50;103096.09;;;4.89;98.00
64362;BME280;50685;53.346;-6.296;2023-01-28T07:56:15;103095.13;;;4.87;98.07
64362;BME280;50685;53.346;-6.296;2023-01-28T07:58:40;103094.09;;;4.83;97.97
64362;BME280;50685;53.346;-6.296;2023-01-28T08:01:05;103098.31;;;4.79;98.41
64362;BME280;50685;53.346;-6.296;2023-01-28T08:03:31;103097.25;;;4.76;98.29
64362;BME280;50685;53.346;-6.296;2023-01-28T08:05:58;103108.53;;;4.73;98.10
64362;BME280;50685;53.346;-6.296;2023-01-28T08:08:24;103114.50;;;4.71;98.28
64362;BME280;50685;53.346;-6.296;2023-01-28T08:10:50;103128.50;;;4.70;98.74
64362;BME280;50685;53.346;-6.296;2023-01-28T08:13:16;103118.88;;;4.70;98.88
64362;BME280;50685;53.346;-6.296;2023-01-28T08:15:42;103123.25;;;4.70;99.42
64362;BME280;50685;53.346;-6.296;2023-01-28T08:18:08;103126.69;;;4.69;99.37
64362;BME280;50685;53.346;-6.296;2023-01-28T08:20:34;103130.19;;;4.69;99.62
64362;BME280;50685;53.346;-6.296;2023-01-28T08:23:10;103136.44;;;4.71;99.93
64362;BME280;50685;53.346;-6.296;2023-01-28T08:25:36;103136.59;;;4.74;99.47
64362;BME280;50685;53.346;-6.296;2023-01-28T08:28:01;103140.19;;;4.76;99.31
64362;BME280;50685;53.346;-6.296;2023-01-28T08:30:27;103133.44;;;4.81;99.55
64362;BME280;50685;53.346;-6.296;2023-01-28T08:32:56;103143.38;;;4.87;99.20
64362;BME280;50685;53.346;-6.296;2023-01-28T08:35:25;103142.66;;;4.91;98.89
64362;BME280;50685;53.346;-6.296;2023-01-28T08:37:51;103150.78;;;4.96;99.26
64362;BME280;50685;53.346;-6.296;2023-01-28T08:40:16;103143.13;;;5.01;99.09
64362;BME280;50685;53.346;-6.296;2023-01-28T08:42:48;103142.38;;;5.03;98.93
64362;BME280;50685;53.346;-6.296;2023-01-28T08:45:14;103141.69;;;5.07;98.78
64362;BME280;50685;53.346;-6.296;2023-01-28T08:47:56;103141.84;;;5.10;98.52
64362;BME280;50685;53.346;-6.296;2023-01-28T08:50:23;103148.22;;;5.15;98.68
64362;BME280;50685;53.346;-6.296;2023-01-28T08:52:53;103150.25;;;5.21;98.36
64362;BME280;50685;53.346;-6.296;2023-01-28T08:55:19;103150.53;;;5.27;98.55
64362;BME280;50685;53.346;-6.296;2023-01-28T08:57:44;103147.16;;;5.30;98.34
64362;BME280;50685;53.346;-6.296;2023-01-28T09:00:10;103153.47;;;5.34;98.34
64362;BME280;50685;53.346;-6.296;2023-01-28T09:02:36;103150.97;;;5.37;97.97
64362;BME280;50685;53.346;-6.296;2023-01-28T09:05:01;103148.56;;;5.41;97.83
64362;BME280;50685;53.346;-6.296;2023-01-28T09:07:26;103144.28;;;5.43;97.62
64362;BME280;50685;53.346;-6.296;2023-01-28T09:09:52;103142.59;;;5.45;97.37
64362;BME280;50685;53.346;-6.296;2023-01-28T09:12:17;103136.56;;;5.48;97.04
64362;BME280;50685;53.346;-6.296;2023-01-28T09:14:42;103146.38;;;5.51;96.95
64362;BME280;50685;53.346;-6.296;2023-01-28T09:17:08;103145.50;;;5.52;96.84
64362;BME280;50685;53.346;-6.296;2023-01-28T09:19:33;103150.94;;;5.55;96.89
64362;BME280;50685;53.346;-6.296;2023-01-28T09:21:58;103153.78;;;5.59;96.80
64362;BME280;50685;53.346;-6.296;2023-01-28T09:24:24;103154.72;;;5.61;96.42
64362;BME280;50685;53.346;-6.296;2023-01-28T09:26:49;103152.31;;;5.66;96.57
64362;BME280;50685;53.346;-6.296;2023-01-28T09:29:15;103149.00;;;5.70;96.15
64362;BME280;50685;53.346;-6.296;2023-01-28T09:31:40;103148.31;;;5.74;96.01
64362;BME280;50685;53.346;-6.296;2023-01-28T09:34:06;103146.84;;;5.81;95.71
64362;BME280;50685;53.346;-6.296;2023-01-28T09:36:31;103147.88;;;5.85;95.65
64362;BME280;50685;53.346;-6.296;2023-01-28T09:38:57;103148.09;;;5.89;95.17
64362;BME280;50685;53.346;-6.296;2023-01-28T09:41:23;103143.84;;;5.93;95.00
64362;BME280;50685;53.346;-6.296;2023-01-28T09:46:15;103147.00;;;6.04;94.74
64362;BME280;50685;53.346;-6.296;2023-01-28T09:48:44;103155.03;;;6.07;94.76
64362;BME280;50685;53.346;-6.296;2023-01-28T09:51:21;103154.41;;;6.13;94.45
64362;BME280;50685;53.346;-6.296;2023-01-28T09:53:50;103156.44;;;6.18;94.46
64362;BME280;50685;53.346;-6.296;2023-01-28T09:56:24;103153.06;;;6.22;94.19
64362;BME280;50685;53.346;-6.296;2023-01-28T09:58:50;103155.84;;;6.25;94.25
64362;BME280;50685;53.346;-6.296;2023-01-28T10:01:36;103157.78;;;6.30;94.48
64362;BME280;50685;53.346;-6.296;2023-01-28T10:04:16;103163.31;;;6.36;94.32
64362;BME280;50685;53.346;-6.296;2023-01-28T10:06:53;103170.50;;;6.40;94.87
64362;BME280;50685;53.346;-6.296;2023-01-28T10:09:39;103170.72;;;6.45;94.55
64362;BME280;50685;53.346;-6.296;2023-01-28T10:25:36;103192.53;;;6.40;98.10
64362;BME280;50685;53.346;-6.296;2023-01-28T10:28:04;103192.53;;;6.40;98.26
64362;BME280;50685;53.346;-6.296;2023-01-28T10:30:37;103190.81;;;6.42;98.67
64362;BME280;50685;53.346;-6.296;2023-01-28T10:33:05;103190.06;;;6.45;98.73
64362;BME280;50685;53.346;-6.296;2023-01-28T10:35:38;103192.06;;;6.51;97.91
64362;BME280;50685;53.346;-6.296;2023-01-28T10:38:04;103201.06;;;6.56;98.62
64362;BME280;50685;53.346;-6.296;2023-01-28T10:40:32;103203.91;;;6.61;99.08
64362;BME280;50685;53.346;-6.296;2023-01-28T10:42:57;103205.81;;;6.65;99.10
64362;BME280;50685;53.346;-6.296;2023-01-28T10:45:24;103208.72;;;6.71;99.35
64362;BME280;50685;53.346;-6.296;2023-01-28T10:48:07;103207.06;;;6.73;99.39
64362;BME280;50685;53.346;-6.296;2023-01-28T10:50:35;103193.09;;;6.75;99.61
64362;BME280;50685;53.346;-6.296;2023-01-28T10:53:02;103194.97;;;6.78;99.33
64362;BME280;50685;53.346;-6.296;2023-01-28T10:55:36;103195.94;;;6.80;99.12
64362;BME280;50685;53.346;-6.296;2023-01-28T10:58:13;103188.06;;;6.82;99.13
64362;BME280;50685;53.346;-6.296;2023-01-28T11:00:42;103194.38;;;6.85;98.63
64362;BME280;50685;53.346;-6.296;2023-01-28T11:03:15;103183.06;;;6.88;98.60
64362;BME280;50685;53.346;-6.296;2023-01-28T11:05:48;103184.91;;;6.90;98.72
64362;BME280;50685;53.346;-6.296;2023-01-28T11:08:15;103179.72;;;6.92;98.80
64362;BME280;50685;53.346;-6.296;2023-01-28T11:10:41;103163.94;;;6.94;98.62
64362;BME280;50685;53.346;-6.296;2023-01-28T11:13:16;103171.03;;;6.95;98.25
64362;BME280;50685;53.346;-6.296;2023-01-28T11:16:03;103162.34;;;6.97;97.88
64362;BME280;50685;53.346;-6.296;2023-01-28T11:18:29;103163.38;;;7.01;97.29
64362;BME280;50685;53.346;-6.296;2023-01-28T11:20:56;103153.69;;;7.01;98.20
64362;BME280;50685;53.346;-6.296;2023-01-28T11:23:24;103143.38;;;7.07;97.77
64362;BME280;50685;53.346;-6.296;2023-01-28T11:26:01;103139.44;;;7.19;97.55
64362;BME280;50685;53.346;-6.296;2023-01-28T11:28:28;103137.16;;;7.28;98.26
64362;BME280;50685;53.346;-6.296;2023-01-28T11:30:54;103130.63;;;7.41;97.35
64362;BME280;50685;53.346;-6.296;2023-01-28T11:33:22;103131.97;;;7.54;96.86
64362;BME280;50685;53.346;-6.296;2023-01-28T11:36:03;103126.09;;;7.61;96.28
64362;BME280;50685;53.346;-6.296;2023-01-28T11:38:29;103123.78;;;7.70;96.03
64362;BME280;50685;53.346;-6.296;2023-01-28T11:40:55;103110.75;;;7.75;95.71
64362;BME280;50685;53.346;-6.296;2023-01-28T11:43:22;103118.03;;;7.82;95.62
64362;BME280;50685;53.346;-6.296;2023-01-28T11:45:57;103124.47;;;7.89;94.86
64362;BME280;50685;53.346;-6.296;2023-01-28T11:48:28;103129.84;;;7.92;95.16
64362;BME280;50685;53.346;-6.296;2023-01-28T11:51:01;103129.19;;;7.98;95.11
64362;BME280;50685;53.346;-6.296;2023-01-28T12:04:13;103124.75;;;7.97;93.61
64362;BME280;50685;53.346;-6.296;2023-01-28T12:14:53;103112.88;;;7.61;95.36
64362;BME280;50685;53.346;-6.296;2023-01-28T12:20:09;103110.41;;;7.42;96.28
64362;BME280;50685;53.346;-6.296;2023-01-28T12:25:14;103113.88;;;7.40;97.24
64362;BME280;50685;53.346;-6.296;2023-01-28T12:32:47;103102.91;;;7.30;98.34
64362;BME280;50685;53.346;-6.296;2023-01-28T12:35:19;103102.00;;;7.29;98.83
64362;BME280;50685;53.346;-6.296;2023-01-28T12:43:05;103083.78;;;7.35;99.40
64362;BME280;50685;53.346;-6.296;2023-01-28T12:45:39;103079.47;;;7.37;99.87
64362;BME280;50685;53.346;-6.296;2023-01-28T12:48:18;103069.81;;;7.39;99.71
64362;BME280;50685;53.346;-6.296;2023-01-28T12:53:48;103073.75;;;7.51;99.13
64362;BME280;50685;53.346;-6.296;2023-01-28T12:56:19;103066.13;;;7.59;98.74
64362;BME280;50685;53.346;-6.296;2023-01-28T12:59:09;103058.53;;;7.68;98.17
64362;BME280;50685;53.346;-6.296;2023-01-28T13:01:39;103064.13;;;7.76;96.58
64362;BME280;50685;53.346;-6.296;2023-01-28T13:09:10;103058.94;;;8.04;94.60
64362;BME280;50685;53.346;-6.296;2023-01-28T13:11:36;103050.91;;;8.01;92.88
64362;BME280;50685;53.346;-6.296;2023-01-28T13:14:03;103053.44;;;7.98;93.32
64362;BME280;50685;53.346;-6.296;2023-01-28T13:16:28;103046.44;;;7.99;93.04
64362;BME280;50685;53.346;-6.296;2023-01-28T13:19:02;103049.91;;;7.98;93.02
64362;BME280;50685;53.346;-6.296;2023-01-28T13:21:31;103049.34;;;7.82;91.88
64362;BME280;50685;53.346;-6.296;2023-01-28T13:26:26;103048.41;;;7.80;92.51
64362;BME280;50685;53.346;-6.296;2023-01-28T13:28:52;103046.75;;;7.84;92.32
64362;BME280;50685;53.346;-6.296;2023-01-28T13:31:19;103046.94;;;7.88;92.16
64362;BME280;50685;53.346;-6.296;2023-01-28T13:38:57;103045.34;;;7.94;91.21
64362;BME280;50685;53.346;-6.296;2023-01-28T13:41:23;103037.38;;;7.92;91.37
64362;BME280;50685;53.346;-6.296;2023-01-28T13:43:49;103032.88;;;7.90;91.29
64362;BME280;50685;53.346;-6.296;2023-01-28T13:46:27;103032.63;;;7.82;91.40
64362;BME280;50685;53.346;-6.296;2023-01-28T13:48:54;103036.81;;;7.77;91.91
64362;BME280;50685;53.346;-6.296;2023-01-28T13:54:04;103037.47;;;7.69;93.05
64362;BME280;50685;53.346;-6.296;2023-01-28T14:16:57;103000.25;;;7.37;95.68
64362;BME280;50685;53.346;-6.296;2023-01-28T14:19:28;103000.31;;;7.39;95.75
64362;BME280;50685;53.346;-6.296;2023-01-28T14:21:55;102993.28;;;7.39;95.55
64362;BME280;50685;53.346;-6.296;2023-01-28T14:24:20;102996.91;;;7.43;96.22
64362;BME280;50685;53.346;-6.296;2023-01-28T14:29:32;102992.44;;;7.40;96.34
64362;BME280;50685;53.346;-6.296;2023-01-28T14:32:07;102993.28;;;7.39;96.19
64362;BME280;50685;53.346;-6.296;2023-01-28T14:34:35;103001.16;;;7.38;96.82
64362;BME280;50685;53.346;-6.296;2023-01-28T14:37:08;103004.78;;;7.42;96.67
64362;BME280;50685;53.346;-6.296;2023-01-28T14:39:41;103004.66;;;7.38;95.39
64362;BME280;50685;53.346;-6.296;2023-01-28T14:42:11;103002.16;;;7.42;95.85
64362;BME280;50685;53.346;-6.296;2023-01-28T14:44:38;103005.00;;;7.48;95.87
64362;BME280;50685;53.346;-6.296;2023-01-28T14:49:48;103007.03;;;7.55;95.05
64362;BME280;50685;53.346;-6.296;2023-01-28T14:52:23;103015.97;;;7.59;94.62